Time;durP1;ratioP1;P1;durP2;ratioP2;P2;SDS_P1;SDS_P2;PMS_P1;PMS_P2;Temp;Humidity;BMP_temperature;BMP_pressure;BME280_temperature;BME280_humidity;BME280_pressure;Samples;Min_cycle;Max_cycle;Signal;HPM_P1;HPM_P2
2022/11/16 00:02:08;;;;;;;33.72;22.83;;;;;;;4.81;100.00;100366.75;5090508;28;20035;-72
2022/11/16 00:04:34;;;;;;;34.47;24.17;;;;;;;4.81;100.00;100360.75;5090731;28;20032;-73
2022/11/16 00:07:03;;;;;;;36.22;25.70;;;;;;;4.79;100.00;100367.47;5090832;28;20036;-72
2022/11/16 00:09:30;;;;;;;36.53;24.95;;;;;;;4.66;100.00;100350.50;5089863;28;20102;-72
2022/11/16 00:12:00;;;;;;;38.92;27.05;;;;;;;4.47;100.00;100351.97;5091137;28;20032;-73
2022/11/16 00:14:30;;;;;;;;;;;;;;;4.42;100.00;100357.59;5091493;28;20520;-72
2022/11/16 00:16:57;;;;;;;38.85;26.13;;;;;;;4.36;100.00;100341.13;5091378;28;19915;-72
2022/11/16 00:19:23;;;;;;;38.88;26.33;;;;;;;4.17;100.00;100317.81;5093825;28;20020;-73
2022/11/16 00:21:50;;;;;;;39.13;26.25;;;;;;;4.32;100.00;100353.63;5100919;28;20052;-73
2022/11/16 00:24:17;;;;;;;42.47;26.25;;;;;;;4.45;100.00;100356.13;5091285;28;20459;-72
2022/11/16 00:26:43;;;;;;;41.47;25.75;;;;;;;4.50;100.00;100347.03;5090618;28;20028;-76
2022/11/16 00:29:20;;;;;;;39.50;25.85;;;;;;;4.56;100.00;100349.09;5090470;28;20038;-73
2022/11/16 00:31:46;;;;;;;37.65;24.50;;;;;;;4.58;100.00;100356.84;5071973;28;20012;-74
2022/11/16 00:34:12;;;;;;;36.25;24.98;;;;;;;4.49;100.00;100350.38;5090505;28;20024;-74
2022/11/16 00:36:37;;;;;;;37.10;25.42;;;;;;;4.09;100.00;100304.56;5089382;28;20039;-74
2022/11/16 00:39:03;;;;;;;36.33;23.63;;;;;;;4.12;100.00;100345.63;5090827;28;20035;-74
2022/11/16 00:41:29;;;;;;;35.13;24.05;;;;;;;3.64;100.00;100300.97;5090398;28;20020;-74
2022/11/16 00:43:54;;;;;;;37.08;24.27;;;;;;;3.93;100.00;100347.88;5072190;28;20024;-72
2022/11/16 00:46:20;;;;;;;36.15;24.33;;;;;;;3.96;100.00;100331.06;5090480;28;20036;-73
2022/11/16 00:48:45;;;;;;;35.10;24.92;;;;;;;4.14;100.00;100332.97;5090359;28;20153;-72
2022/11/16 00:51:11;;;;;;;34.22;23.95;;;;;;;4.24;100.00;100325.06;5091374;28;20036;-72
2022/11/16 00:53:36;;;;;;;35.03;22.35;;;;;;;4.26;100.00;100331.16;5067907;28;20032;-71
2022/11/16 00:56:03;;;;;;;31.42;21.33;;;;;;;4.09;100.00;100316.44;5068297;28;20584;-72
2022/11/16 00:58:28;;;;;;;33.60;23.52;;;;;;;4.11;100.00;100320.00;5068302;28;20502;-72
2022/11/16 01:00:53;;;;;;;33.33;22.00;;;;;;;4.05;100.00;100318.84;5072174;28;20140;-72
2022/11/16 01:03:19;;;;;;;33.30;22.88;;;;;;;4.01;100.00;100314.34;5088498;28;20048;-72
2022/11/16 01:05:44;;;;;;;34.50;22.13;;;;;;;3.93;100.00;100322.31;5088580;28;20040;-72
2022/11/16 01:08:10;;;;;;;31.33;21.67;;;;;;;3.86;100.00;100321.03;5088435;28;20478;-72
2022/11/16 01:10:38;;;;;;;29.90;21.52;;;;;;;3.49;100.00;100265.16;5088511;28;20040;-72
2022/11/16 01:13:03;;;;;;;30.15;20.90;;;;;;;3.62;100.00;100297.44;5088276;28;20036;-72
2022/11/16 01:15:29;;;;;;;33.80;23.83;;;;;;;3.69;100.00;100300.47;5088148;28;20043;-72
2022/11/16 01:17:55;;;;;;;31.63;21.83;;;;;;;3.79;100.00;100301.91;5088433;28;20483;-72
2022/11/16 01:20:24;;;;;;;29.85;20.75;;;;;;;3.82;100.00;100296.13;5088343;28;20051;-71
2022/11/16 01:22:50;;;;;;;29.65;21.60;;;;;;;3.86;100.00;100296.41;5088233;28;20147;-72
2022/11/16 01:25:16;;;;;;;27.33;19.63;;;;;;;3.72;100.00;100267.44;5089993;28;20520;-72
2022/11/16 01:27:42;;;;;;;31.08;22.38;;;;;;;3.85;100.00;100311.59;5090685;28;20034;-72
2022/11/16 01:30:10;;;;;;;28.73;20.90;;;;;;;3.83;100.00;100292.78;5090847;28;20024;-72
2022/11/16 01:32:36;;;;;;;27.48;20.70;;;;;;;3.51;100.00;100238.06;5072311;28;20032;-72
2022/11/16 01:35:03;;;;;;;29.20;20.80;;;;;;;3.79;100.00;100285.69;5090808;28;20103;-72
2022/11/16 01:37:29;;;;;;;30.73;21.38;;;;;;;3.79;100.00;100276.38;5090782;28;20458;-72
2022/11/16 01:39:55;;;;;;;27.75;20.90;;;;;;;3.68;100.00;100270.63;5090628;28;20119;-72
2022/11/16 01:42:28;;;;;;;28.65;20.60;;;;;;;3.55;100.00;100269.00;5090283;28;20020;-71
2022/11/16 01:45:01;;;;;;;30.58;21.90;;;;;;;3.59;100.00;100269.16;5090765;28;20492;-71
2022/11/16 01:47:27;;;;;;;29.52;21.08;;;;;;;3.58;100.00;100254.63;5090622;28;20032;-71
2022/11/16 01:49:58;;;;;;;31.63;23.20;;;;;;;3.49;100.00;100229.41;5090782;28;20016;-70
2022/11/16 01:52:30;;;;;;;31.20;22.65;;;;;;;3.75;100.00;100248.91;5090558;28;20042;-71
2022/11/16 01:54:55;;;;;;;32.03;22.25;;;;;;;3.66;100.00;100246.66;5090039;28;20052;-71
2022/11/16 01:57:26;;;;;;;30.73;22.85;;;;;;;3.50;100.00;100249.97;5090498;28;20079;-71
2022/11/16 01:59:56;;;;;;;32.70;23.00;;;;;;;3.46;100.00;100244.56;5090469;28;20028;-70
2022/11/16 02:02:22;;;;;;;30.63;22.70;;;;;;;3.52;100.00;100245.81;5072415;28;20016;-71
2022/11/16 02:04:49;;;;;;;35.25;24.15;;;;;;;3.50;100.00;100252.50;5090266;28;20081;-71
2022/11/16 02:07:30;;;;;;;33.97;24.08;;;;;;;3.58;100.00;100249.53;5090514;28;20028;-71
2022/11/16 02:10:21;;;;;;;32.50;22.40;;;;;;;3.67;100.00;100247.56;5090687;28;20020;-71
2022/11/16 02:13:11;;;;;;;34.85;23.55;;;;;;;3.71;100.00;100252.03;5090367;28;20565;-71
2022/11/16 02:15:58;;;;;;;35.47;24.30;;;;;;;3.47;100.00;100205.50;5090635;28;20034;-71
2022/11/16 02:18:41;;;;;;;34.13;24.50;;;;;;;3.55;100.00;100250.22;5090100;28;20051;-71
2022/11/16 02:21:20;;;;;;;34.42;22.95;;;;;;;3.48;100.00;100241.31;5090220;28;20189;-71
2022/11/16 02:24:04;;;;;;;34.15;23.83;;;;;;;3.53;100.00;100239.06;5090311;28;20046;-71
2022/11/16 02:26:38;;;;;;;36.45;24.27;;;;;;;3.54;100.00;100236.59;5090509;28;20024;-70
2022/11/16 02:29:19;;;;;;;35.78;23.20;;;;;;;3.64;100.00;100232.03;5090563;28;20035;-71
2022/11/16 02:32:07;;;;;;;38.65;25.83;;;;;;;3.66;100.00;100222.81;5090593;28;20054;-71
2022/11/16 02:34:39;;;;;;;34.33;23.75;;;;;;;3.54;100.00;100203.41;5026441;28;20057;-73
2022/11/16 02:37:08;;;;;;;35.60;23.52;;;;;;;3.65;100.00;100214.28;5027736;28;20076;-73
2022/11/16 02:39:37;;;;;;;35.05;23.17;;;;;;;3.37;100.00;100187.06;5027710;28;20419;-72
2022/11/16 02:42:33;;;;;;;36.13;23.83;;;;;;;3.40;100.00;100211.88;5027508;28;20393;-73
2022/11/16 02:45:00;;;;;;;36.60;23.08;;;;;;;3.45;100.00;100212.16;5027362;28;20195;-74
2022/11/16 02:47:29;;;;;;;35.88;23.40;;;;;;;3.54;100.00;100216.16;5027428;28;20040;-73
2022/11/16 02:49:58;;;;;;;;;;;;;;;3.38;100.00;100219.44;5011397;28;20621;-73
2022/11/16 02:52:27;;;;;;;33.78;22.50;;;;;;;3.28;100.00;100211.13;5027573;28;19947;-73
2022/11/16 02:54:53;;;;;;;39.88;25.33;;;;;;;3.33;100.00;100202.97;5028876;28;20044;-72
2022/11/16 02:57:49;;;;;;;34.55;23.80;;;;;;;3.42;100.00;100209.44;5031182;28;20124;-73
2022/11/16 03:00:18;;;;;;;35.53;23.73;;;;;;;3.13;100.00;100211.94;5023988;28;20050;-71
2022/11/16 03:02:55;;;;;;;36.47;25.15;;;;;;;2.95;100.00;100216.75;5021855;28;20025;-72
2022/11/16 03:05:30;;;;;;;37.20;25.23;;;;;;;2.79;100.00;100208.94;5030581;28;20381;-73
2022/11/16 03:08:37;;;;;;;32.45;21.70;;;;;;;2.97;100.00;100212.66;5030965;28;20197;-72
2022/11/16 03:13:55;;;;;;;35.75;23.30;;;;;;;3.05;100.00;100213.13;5011233;28;20041;-73
2022/11/16 03:16:50;;;;;;;38.42;24.48;;;;;;;2.99;100.00;100211.09;5008321;28;20045;-73
2022/11/16 03:19:21;;;;;;;35.70;22.52;;;;;;;2.93;100.00;100200.50;4991333;28;20068;-73
2022/11/16 03:21:50;;;;;;;35.65;23.83;;;;;;;2.90;100.00;100200.28;4989917;28;20108;-72
2022/11/16 03:24:16;;;;;;;41.15;23.38;;;;;;;2.94;100.00;100193.72;4991161;28;20124;-72
2022/11/16 03:27:14;;;;;;;43.92;23.88;;;;;;;2.62;100.00;100155.22;4991145;28;20034;-71
2022/11/16 03:30:02;;;;;;;36.00;22.17;;;;;;;2.83;100.00;100203.22;4952064;28;20067;-72
2022/11/16 03:32:34;;;;;;;56.45;23.50;;;;;;;2.43;100.00;100204.13;4895151;29;20535;-72
2022/11/16 03:35:06;;;;;;;41.17;24.35;;;;;;;2.49;100.00;100208.72;4879444;29;20036;-72
2022/11/16 03:37:34;;;;;;;57.28;24.63;;;;;;;2.57;100.00;100197.38;4895078;29;20115;-72
2022/11/16 03:40:01;;;;;;;49.58;24.85;;;;;;;2.59;100.00;100191.59;4895034;29;20044;-72
2022/11/16 03:42:28;;;;;;;41.17;22.02;;;;;;;2.54;100.00;100177.66;4895028;29;20049;-72
2022/11/16 03:44:54;;;;;;;48.25;23.05;;;;;;;2.45;100.00;100192.34;4895084;29;20227;-71
2022/11/16 03:47:20;;;;;;;40.25;22.73;;;;;;;2.33;100.00;100187.34;4894583;29;20051;-74
2022/11/16 03:49:46;;;;;;;38.75;22.38;;;;;;;2.29;100.00;100194.69;4898720;29;20044;-73
2022/11/16 03:52:14;;;;;;;37.47;23.55;;;;;;;1.99;100.00;100143.50;4913635;29;20040;-73
2022/11/16 03:54:39;;;;;;;42.08;23.92;;;;;;;2.13;100.00;100152.03;4913592;29;20051;-73
2022/11/16 03:57:05;;;;;;;35.05;21.67;;;;;;;2.31;100.00;100178.72;4948746;29;20069;-73
2022/11/16 03:59:30;;;;;;;42.40;24.35;;;;;;;2.24;100.00;100179.09;4952521;28;20505;-74
2022/11/16 04:01:56;;;;;;;37.55;23.85;;;;;;;2.31;100.00;100178.72;4989525;28;20097;-73
2022/11/16 04:26:14;;;;;;;48.15;25.05;;;;;;;2.34;100.00;100112.66;5092355;28;20074;-71
2022/11/16 04:28:40;;;;;;;44.10;24.70;;;;;;;2.68;100.00;100160.72;5092022;28;20051;-71
2022/11/16 04:39:19;;;;;;;49.05;25.02;;;;;;;2.72;100.00;100147.34;5091994;28;20542;-71
2022/11/16 04:47:05;;;;;;;54.92;27.80;;;;;;;2.77;100.00;100149.31;5091672;28;20532;-72
2022/11/16 04:47:14;;;;;;;44.55;26.85;;;;;;;2.85;100.00;100143.91;5091272;28;20032;-72
2022/11/16 04:49:39;;;;;;;47.55;28.85;;;;;;;2.84;100.00;100143.81;5090216;28;20036;-72
2022/11/16 04:52:05;;;;;;;42.03;27.23;;;;;;;2.83;100.00;100137.84;5091475;28;20030;-71
2022/11/16 04:54:30;;;;;;;42.72;27.35;;;;;;;2.74;100.00;100121.97;5091115;28;20035;-72
2022/11/16 04:56:55;;;;;;;38.90;26.02;;;;;;;2.58;100.00;100098.06;5091486;28;20032;-72
2022/11/16 04:59:21;;;;;;;40.15;25.88;;;;;;;2.57;100.00;100093.75;5091290;28;20060;-72
2022/11/16 05:04:30;;;;;;;42.40;26.60;;;;;;;2.77;100.00;100123.81;5089802;28;20039;-69
2022/11/16 05:06:56;;;;;;;38.10;26.92;;;;;;;2.75;100.00;100116.97;5091380;28;20028;-72
2022/11/16 05:09:21;;;;;;;36.25;25.73;;;;;;;2.62;100.00;100113.53;5090727;28;20028;-72
2022/11/16 05:11:46;;;;;;;42.55;26.02;;;;;;;2.39;100.00;100103.69;5091237;28;20393;-71
2022/11/16 05:14:12;;;;;;;41.78;27.05;;;;;;;2.28;100.00;100091.03;5090708;28;20032;-73
2022/11/16 05:16:37;;;;;;;43.28;26.88;;;;;;;2.21;100.00;100095.72;5090719;28;20028;-72
2022/11/16 05:21:47;;;;;;;48.92;27.42;;;;;;;2.10;100.00;100109.44;5090772;28;20071;-73
2022/11/16 05:26:56;;;;;;;42.85;27.75;;;;;;;1.86;100.00;100132.50;5091346;28;20089;-72
2022/11/16 05:29:22;;;;;;;40.17;27.23;;;;;;;1.78;100.00;100137.09;5091039;28;20461;-72
2022/11/16 05:31:47;;;;;;;39.17;26.48;;;;;;;1.81;100.00;100138.06;5091096;28;20028;-72
2022/11/16 05:34:13;;;;;;;42.00;29.17;;;;;;;1.83;100.00;100131.41;5072754;28;20554;-71
2022/11/16 05:36:41;;;;;;;43.15;29.40;;;;;;;2.03;100.00;100126.00;5090846;28;20038;-71
2022/11/16 05:39:07;;;;;;;41.95;27.80;;;;;;;2.20;100.00;100118.56;5090411;28;20028;-71
2022/11/16 05:41:32;;;;;;;43.65;29.00;;;;;;;2.34;100.00;100114.34;5090800;28;20032;-79
2022/11/16 05:43:58;;;;;;;40.30;26.50;;;;;;;2.06;100.00;100108.34;5089449;28;20031;-77
2022/11/16 05:46:23;;;;;;;39.88;28.98;;;;;;;1.99;100.00;100126.56;5072610;28;20024;-76
2022/11/16 05:48:50;;;;;;;46.10;29.77;;;;;;;2.23;100.00;100131.47;5072585;28;20484;-72
2022/11/16 05:51:15;;;;;;;40.63;28.80;;;;;;;2.42;100.00;100121.69;5090394;28;20035;-72
2022/11/16 05:53:42;;;;;;;43.65;29.63;;;;;;;2.50;100.00;100111.97;5090812;28;20028;-73
2022/11/16 05:56:09;;;;;;;50.00;28.20;;;;;;;2.61;100.00;100129.63;5090329;28;20478;-73
2022/11/16 05:58:34;;;;;;;55.08;31.55;;;;;;;2.67;100.00;100124.94;5090717;28;20036;-72
2022/11/16 06:00:59;;;;;;;61.83;31.42;;;;;;;2.82;100.00;100130.97;5090637;28;20526;-73
2022/11/16 06:03:28;;;;;;;58.60;32.72;;;;;;;2.86;100.00;100116.75;5090576;28;20119;-73
2022/11/16 06:05:54;;;;;;;66.85;31.85;;;;;;;3.01;100.00;100124.47;5090621;28;20035;-73
2022/11/16 06:08:20;;;;;;;79.95;36.90;;;;;;;3.11;100.00;100125.91;5090694;28;20032;-73
2022/11/16 06:10:45;;;;;;;73.40;34.17;;;;;;;3.11;100.00;100120.81;5090444;28;20028;-73
2022/11/16 06:13:11;;;;;;;75.20;31.98;;;;;;;3.13;100.00;100119.22;5090302;28;20028;-74
2022/11/16 06:15:37;;;;;;;79.35;34.38;;;;;;;3.26;100.00;100115.78;5090410;28;20032;-73
2022/11/16 06:18:03;;;;;;;58.95;34.33;;;;;;;3.36;100.00;100115.53;5090359;28;20047;-73
2022/11/16 06:20:29;;;;;;;76.07;34.42;;;;;;;3.40;100.00;100109.81;5072773;28;20040;-73
2022/11/16 06:22:56;;;;;;;54.55;31.52;;;;;;;3.35;100.00;100108.66;5085341;28;20044;-73
2022/11/16 06:25:21;;;;;;;71.57;33.60;;;;;;;3.46;100.00;100114.41;5071883;28;20134;-73
2022/11/16 06:27:46;;;;;;;127.50;35.05;;;;;;;3.57;100.00;100105.72;5073965;28;20474;-73
2022/11/16 06:30:12;;;;;;;85.40;37.13;;;;;;;3.70;100.00;100105.66;5091593;28;20016;-74
2022/11/16 06:32:39;;;;;;;104.40;38.67;;;;;;;3.76;100.00;100105.09;5091491;28;20035;-74
2022/11/16 06:35:05;;;;;;;148.13;49.97;;;;;;;3.70;100.00;100109.84;5091135;28;20401;-73
2022/11/16 06:37:31;;;;;;;157.48;52.80;;;;;;;3.56;100.00;100109.06;5092118;28;20537;-75
2022/11/16 06:39:57;;;;;;;97.70;42.53;;;;;;;3.72;100.00;100114.25;5092635;28;20024;-73
2022/11/16 06:42:23;;;;;;;95.00;40.95;;;;;;;3.76;100.00;100109.34;5091672;28;20022;-73
2022/11/16 06:44:48;;;;;;;107.68;39.20;;;;;;;3.81;100.00;100107.94;5074342;28;20413;-73
2022/11/16 06:47:14;;;;;;;95.28;39.15;;;;;;;3.82;100.00;100099.50;5092396;28;20103;-73
2022/11/16 06:49:39;;;;;;;97.80;37.17;;;;;;;3.64;100.00;100055.88;5090923;28;20044;-72
2022/11/16 06:52:04;;;;;;;112.32;37.75;;;;;;;3.84;100.00;100078.34;5056575;28;20094;-73
2022/11/16 06:54:30;;;;;;;85.10;38.13;;;;;;;3.99;100.00;100093.69;5079461;28;20020;-73
2022/11/16 06:56:55;;;;;;;86.85;37.53;;;;;;;3.76;100.00;100048.94;5075422;28;20488;-72
2022/11/16 06:59:20;;;;;;;81.13;36.30;;;;;;;3.97;100.00;100089.28;5092208;28;20027;-72
2022/11/16 07:01:46;;;;;;;70.13;36.83;;;;;;;4.12;100.00;100095.25;5075203;28;20055;-73
2022/11/16 07:04:11;;;;;;;71.25;36.42;;;;;;;4.18;100.00;100092.16;5093650;28;20536;-72
2022/11/16 07:06:37;;;;;;;85.78;36.58;;;;;;;4.29;100.00;100097.91;5093337;28;20485;-71
2022/11/16 07:09:07;;;;;;;70.95;33.70;;;;;;;4.29;100.00;100100.44;5071688;28;20020;-71
2022/11/16 07:11:33;;;;;;;76.32;33.83;;;;;;;4.16;100.00;100101.41;5093341;28;20054;-72
2022/11/16 07:13:59;;;;;;;101.90;33.45;;;;;;;3.81;100.00;100057.75;5093631;28;20036;-73
2022/11/16 07:16:24;;;;;;;89.80;33.75;;;;;;;3.72;100.00;100047.00;5074982;28;20035;-73
2022/11/16 07:18:50;;;;;;;67.20;33.78;;;;;;;4.12;100.00;100095.25;5093429;28;20036;-73
2022/11/16 07:21:17;;;;;;;58.08;36.15;;;;;;;4.25;100.00;100091.72;5091567;28;20448;-73
2022/11/16 07:23:42;;;;;;;58.22;35.65;;;;;;;4.32;100.00;100080.16;5093366;28;20028;-73
2022/11/16 07:26:09;;;;;;;68.20;32.35;;;;;;;4.42;100.00;100081.56;5093094;28;20081;-73
2022/11/16 07:28:34;;;;;;;58.08;32.00;;;;;;;4.52;100.00;100077.03;5074770;28;20032;-73
2022/11/16 07:31:07;;;;;;;49.30;32.33;;;;;;;4.51;100.00;100065.06;5092861;28;20081;-73
2022/11/16 07:33:33;;;;;;;51.42;31.95;;;;;;;4.72;100.00;100073.81;5093123;28;20032;-73
2022/11/16 07:36:07;;;;;;;48.78;33.58;;;;;;;4.82;100.00;100068.38;5092870;28;20035;-73
2022/11/16 07:38:32;;;;;;;46.30;31.30;;;;;;;4.86;100.00;100060.09;5074782;28;20028;-73
2022/11/16 07:41:02;;;;;;;45.42;31.27;;;;;;;4.90;100.00;100056.88;5092242;28;20456;-73
2022/11/16 07:43:30;;;;;;;;;;;;;;;5.04;100.00;100059.31;5093257;28;20405;-73
2022/11/16 07:46:00;;;;;;;68.32;41.00;;;;;;;4.96;100.00;100049.53;5091300;28;20015;-73
2022/11/16 07:48:25;;;;;;;;;;;;;;;5.16;100.00;100047.16;5093118;28;20032;-73
2022/11/16 07:50:50;;;;;;;49.75;32.65;;;;;;;5.31;100.00;100052.19;5092529;28;20270;-72
2022/11/16 07:53:16;;;;;;;45.42;31.70;;;;;;;5.43;100.00;100047.69;5092465;28;20237;-72
2022/11/16 07:55:41;;;;;;;47.83;34.03;;;;;;;5.49;100.00;100049.66;5092476;28;20032;-72
2022/11/16 07:58:07;;;;;;;47.50;31.63;;;;;;;5.62;100.00;100046.91;5092479;28;20419;-72
2022/11/16 08:00:32;;;;;;;45.38;32.35;;;;;;;5.56;100.00;100013.31;5092164;28;20038;-74
2022/11/16 08:02:58;;;;;;;45.60;32.70;;;;;;;5.81;100.00;100048.69;5092823;28;20043;-74
2022/11/16 08:05:23;;;;;;;51.67;35.40;;;;;;;5.99;100.00;100051.34;5092194;28;20035;-73
2022/11/16 08:07:48;;;;;;;48.95;34.28;;;;;;;6.06;100.00;100044.81;5098018;28;20046;-73
2022/11/16 08:10:14;;;;;;;46.10;33.90;;;;;;;6.15;100.00;100041.81;5102535;28;20035;-72
2022/11/16 08:12:39;;;;;;;51.70;35.30;;;;;;;6.34;100.00;100038.41;5095735;28;20028;-73
2022/11/16 08:15:05;;;;;;;61.58;39.40;;;;;;;6.47;100.00;100038.19;5092332;28;20089;-73
2022/11/16 08:17:31;;;;;;;64.53;40.70;;;;;;;6.46;100.00;99997.09;5091247;28;20038;-73
2022/11/16 08:19:56;;;;;;;55.95;36.97;;;;;;;6.89;100.00;100028.94;5090898;28;20027;-73
2022/11/16 08:22:21;;;;;;;53.42;35.50;;;;;;;7.00;100.00;100027.72;5090714;28;20083;-73
2022/11/16 08:24:47;;;;;;;53.45;37.15;;;;;;;7.13;100.00;100034.28;5073869;28;20478;-72
2022/11/16 08:27:14;;;;;;;51.67;36.28;;;;;;;7.27;100.00;100034.88;5092148;28;20114;-73
2022/11/16 08:29:41;;;;;;;57.60;37.72;;;;;;;7.38;100.00;100018.25;5092081;28;20035;-73
2022/11/16 08:32:06;;;;;;;57.72;38.33;;;;;;;7.50;100.00;100012.75;5073617;28;20028;-73
2022/11/16 08:34:32;;;;;;;56.50;39.40;;;;;;;7.54;100.00;100012.06;5091785;28;20020;-73
2022/11/16 08:36:58;;;;;;;60.17;39.35;;;;;;;7.67;100.00;100010.00;5091454;28;20482;-72
2022/11/16 08:39:23;;;;;;;62.50;38.92;;;;;;;7.80;100.00;100001.09;5091850;28;20036;-72
2022/11/16 08:41:49;;;;;;;54.63;37.13;;;;;;;7.93;100.00;99999.06;5091754;28;20028;-72
2022/11/16 08:44:15;;;;;;;58.22;40.00;;;;;;;8.09;100.00;100012.56;5091820;28;20521;-72
2022/11/16 08:46:40;;;;;;;55.55;38.13;;;;;;;8.28;100.00;100000.41;5091422;28;20120;-73
2022/11/16 08:49:06;;;;;;;55.45;38.25;;;;;;;8.42;100.00;99999.22;5091933;28;20042;-73
2022/11/16 08:51:33;;;;;;;52.60;38.15;;;;;;;8.53;100.00;100000.53;5091003;28;20048;-73
2022/11/16 08:53:58;;;;;;;56.60;37.70;;;;;;;8.58;100.00;99993.00;5091283;28;20473;-73
2022/11/16 08:56:26;;;;;;;56.22;38.40;;;;;;;8.70;100.00;99988.31;5090966;28;20063;-72
2022/11/16 08:58:53;;;;;;;60.00;40.47;;;;;;;8.74;100.00;99974.72;5091340;28;20102;-74
2022/11/16 09:01:21;;;;;;;58.25;38.75;;;;;;;8.92;100.00;99981.34;5048131;28;20568;-74
2022/11/16 09:03:46;;;;;;;52.00;37.25;;;;;;;9.04;100.00;99979.22;5048332;28;20041;-73
2022/11/16 09:06:13;;;;;;;54.05;38.83;;;;;;;9.11;100.00;99979.44;5048520;28;20115;-73
2022/11/16 09:08:41;;;;;;;49.22;36.17;;;;;;;9.21;100.00;99971.22;5048327;28;20104;-73
2022/11/16 09:11:08;;;;;;;49.58;37.42;;;;;;;9.27;100.00;99979.16;5048236;28;20123;-73
2022/11/16 09:13:34;;;;;;;50.10;35.22;;;;;;;9.33;100.00;99970.75;5048074;28;20037;-74
2022/11/16 09:16:00;;;;;;;56.22;40.25;;;;;;;9.31;100.00;99952.66;5031472;28;20207;-73
2022/11/16 09:18:27;;;;;;;57.70;37.72;;;;;;;9.60;100.00;99973.38;5048123;28;20031;-75
2022/11/16 09:20:53;;;;;;;45.45;33.72;;;;;;;9.69;100.00;99971.09;5031205;28;20059;-73
2022/11/16 09:23:18;;;;;;;46.85;33.47;;;;;;;9.78;100.00;99965.38;5048030;28;20052;-73
2022/11/16 09:25:47;;;;;;;48.92;34.75;;;;;;;9.70;100.00;99941.03;5028020;28;20078;-73
2022/11/16 09:28:16;;;;;;;44.05;33.45;;;;;;;9.95;100.00;99953.00;5028102;28;20124;-75
2022/11/16 09:30:43;;;;;;;44.00;33.55;;;;;;;10.03;100.00;99942.91;5028223;28;20049;-74
2022/11/16 09:33:08;;;;;;;41.53;32.92;;;;;;;10.23;100.00;99940.94;5044865;28;20040;-75
2022/11/16 09:35:34;;;;;;;43.20;32.45;;;;;;;10.29;100.00;99935.09;5047827;28;20032;-74
2022/11/16 09:37:59;;;;;;;40.65;32.17;;;;;;;10.36;100.00;99940.50;5047817;28;20067;-76
2022/11/16 09:40:35;;;;;;;42.10;30.83;;;;;;;10.49;100.00;99922.78;5046997;28;20494;-73
2022/11/16 09:43:19;;;;;;;43.28;31.85;;;;;;;10.24;100.00;99847.22;5050717;28;20021;-74
2022/11/16 09:45:44;;;;;;;40.92;31.08;;;;;;;10.78;100.00;99909.81;5044558;28;20670;-73
2022/11/16 09:48:13;;;;;;;39.97;30.27;;;;;;;10.81;100.00;99905.59;5041801;28;20037;-73
2022/11/16 09:50:50;;;;;;;41.43;32.87;;;;;;;10.95;100.00;99897.34;5046725;28;20136;-73
2022/11/16 09:53:25;;;;;;;36.92;27.85;;;;;;;11.08;100.00;99891.69;5046432;28;20505;-74
2022/11/16 09:55:53;;;;;;;39.95;30.25;;;;;;;10.83;100.00;99854.03;5047974;28;20530;-73
2022/11/16 09:58:46;;;;;;;40.78;29.25;;;;;;;11.14;100.00;99878.91;5088268;28;20036;-73
2022/11/16 10:01:30;;;;;;;37.10;29.17;;;;;;;11.28;100.00;99873.22;5089248;28;20047;-74
2022/11/16 10:04:17;;;;;;;40.08;29.55;;;;;;;11.14;100.00;99852.19;5089308;28;20045;-72
2022/11/16 10:06:51;;;;;;;37.22;28.45;;;;;;;11.31;100.00;99865.53;5060878;28;20024;-73
2022/11/16 10:09:18;;;;;;;38.95;29.08;;;;;;;11.46;100.00;99860.75;5091981;28;20036;-72
2022/11/16 10:11:55;;;;;;;37.55;27.60;;;;;;;11.61;100.00;99859.34;5053492;28;20028;-74
2022/11/16 10:15:12;;;;;;;36.28;26.98;;;;;;;11.71;100.00;99853.53;5093382;28;20059;-74
2022/11/16 10:18:13;;;;;;;41.30;31.20;;;;;;;11.74;100.00;99843.25;5005455;28;20056;-74
2022/11/16 10:20:51;;;;;;;36.78;27.58;;;;;;;11.80;100.00;99834.75;4909925;29;20056;-74
2022/11/16 10:23:49;;;;;;;35.92;28.10;;;;;;;11.98;100.00;99827.41;4898946;29;20129;-76
2022/11/16 10:26:35;;;;;;;35.72;27.92;;;;;;;12.10;100.00;99831.09;4913727;29;20040;-75
2022/11/16 10:29:04;;;;;;;32.50;23.80;;;;;;;12.14;100.00;99815.66;4911819;29;20039;-72
2022/11/16 10:31:50;;;;;;;34.10;26.98;;;;;;;11.91;100.00;99771.22;4914066;29;20080;-72
2022/11/16 10:34:24;;;;;;;34.40;26.95;;;;;;;12.25;99.31;99802.94;4911050;29;20038;-74
2022/11/16 10:36:50;;;;;;;32.50;26.23;;;;;;;12.39;99.75;99803.22;4898149;29;20623;-75
2022/11/16 10:39:18;;;;;;;32.92;26.17;;;;;;;12.58;98.79;99816.50;4913788;29;20040;-74
2022/11/16 10:41:50;;;;;;;32.13;25.13;;;;;;;12.57;99.01;99813.03;4899229;29;20060;-76
2022/11/16 10:44:27;;;;;;;29.35;23.63;;;;;;;12.42;99.19;99771.31;4914875;29;20037;-76
2022/11/16 10:47:11;;;;;;;32.25;25.83;;;;;;;12.76;99.40;99795.22;4914518;29;20043;-74
2022/11/16 10:49:43;;;;;;;33.40;26.67;;;;;;;12.87;99.28;99801.47;4909238;29;20039;-76
2022/11/16 10:52:08;;;;;;;30.23;23.73;;;;;;;12.92;97.38;99801.53;4911742;28;20042;-77
2022/11/16 10:54:33;;;;;;;31.92;25.90;;;;;;;12.90;97.11;99793.75;4991680;28;20385;-78
2022/11/16 10:57:12;;;;;;;30.17;24.40;;;;;;;12.99;97.25;99789.56;5038705;28;20516;-77
2022/11/16 10:59:52;;;;;;;31.70;24.92;;;;;;;13.10;97.60;99788.88;5093490;28;20493;-77
2022/11/16 11:02:23;;;;;;;30.20;24.60;;;;;;;13.29;96.27;99777.94;5093770;28;20336;-77
2022/11/16 11:05:19;;;;;;;32.28;25.20;;;;;;;13.42;95.68;99777.25;5093540;28;20035;-77
2022/11/16 11:07:49;;;;;;;31.88;24.08;;;;;;;13.40;95.80;99772.06;5011125;28;20049;-77
2022/11/16 11:10:33;;;;;;;30.42;25.27;;;;;;;13.48;95.88;99763.53;5010935;28;20046;-77
2022/11/16 11:13:03;;;;;;;31.65;24.02;;;;;;;13.46;96.16;99758.34;4991160;28;20046;-77
2022/11/16 11:15:29;;;;;;;29.80;22.35;;;;;;;13.43;95.67;99753.97;4990472;28;20077;-77
2022/11/16 11:18:17;;;;;;;27.00;21.55;;;;;;;13.46;95.78;99742.78;4991507;28;20121;-77
2022/11/16 11:20:46;;;;;;;26.08;22.17;;;;;;;13.57;95.83;99736.00;5006111;28;20061;-77
2022/11/16 11:23:20;;;;;;;28.07;22.53;;;;;;;13.51;94.95;99704.81;5010818;28;20085;-76
2022/11/16 11:25:59;;;;;;;28.08;22.42;;;;;;;13.79;94.21;99738.00;5011059;28;20078;-77
2022/11/16 11:28:33;;;;;;;28.00;22.53;;;;;;;13.77;94.18;99721.53;4994403;28;20076;-77
2022/11/16 11:31:01;;;;;;;30.13;23.08;;;;;;;13.92;94.43;99724.31;5010790;28;20046;-77
2022/11/16 11:33:33;;;;;;;33.88;22.80;;;;;;;13.87;94.56;99713.03;5010627;28;20042;-77
2022/11/16 11:36:06;;;;;;;29.75;22.05;;;;;;;13.99;94.74;99713.13;5010407;28;20512;-77
2022/11/16 11:38:33;;;;;;;28.10;22.33;;;;;;;13.97;95.00;99716.56;4993782;28;20515;-77
2022/11/16 11:41:03;;;;;;;28.15;22.55;;;;;;;14.06;95.29;99719.28;4993992;28;20132;-77
2022/11/16 11:43:30;;;;;;;28.88;23.27;;;;;;;14.16;94.14;99713.31;5010487;28;20030;-77
2022/11/16 11:46:10;;;;;;;28.13;22.98;;;;;;;14.20;93.81;99711.63;5093034;28;20436;-77
2022/11/16 11:49:02;;;;;;;28.75;20.83;;;;;;;14.12;94.13;99701.16;5093085;28;20030;-77
2022/11/16 11:51:36;;;;;;;27.88;22.23;;;;;;;14.21;94.42;99703.84;5092809;28;20546;-77
2022/11/16 11:54:04;;;;;;;29.33;21.27;;;;;;;14.18;94.84;99689.97;5074430;28;20046;-77
2022/11/16 11:56:32;;;;;;;28.63;22.23;;;;;;;14.25;94.32;99691.75;5092954;28;20028;-77
2022/11/16 11:58:57;;;;;;;26.50;20.75;;;;;;;14.28;93.74;99689.22;5094546;28;20032;-77
2022/11/16 12:01:36;;;;;;;28.63;23.30;;;;;;;14.08;94.49;99653.53;5101329;28;20050;-77
2022/11/16 12:04:27;;;;;;;34.03;21.27;;;;;;;14.36;93.82;99679.75;5080280;28;20101;-77
2022/11/16 12:06:55;;;;;;;30.05;22.38;;;;;;;14.36;93.95;99674.56;5092972;28;20466;-77
2022/11/16 12:09:41;;;;;;;28.08;22.95;;;;;;;14.19;93.60;99639.78;5092824;28;20020;-77